Terminal Aerodrome Forecast
Issued by NWS Charleston, WV

Current Version | Previous Version | Text Only | Print | Product List | Glossary Off
Versions: 1 2 3 4 5 6 7 8 9 10 11 12 13 14 15 16 17 18 19 20 21 22 23 24 25 26

000
FTUS41 KRLX 291742
TAFEKN
TAF
KEKN 291742Z 2918/3018 28005KT P6SM VCTS BKN035CB
     FM300000 00000KT P6SM SCT040
     FM300800 00000KT 5SM BR VCTS BKN035CB
     FM301100 00000KT 2SM BR VCTS BKN015CB
     FM301300 VRB03KT 4SM HZ VCSH BKN020
     FM301600 29004KT 6SM HZ BKN025
     FM301700 29007KT P6SM BKN035=

USA.gov is the U.S. government's official web portal to all federal, state and local government web resources and services.